Data for 09/11/2005

Time Sea-Level Adjusted Pressure Absolute Pressure Temperature Relative Humidity Dew Point   
(mb) (inHg) (mb) (inHg) (C) (F) (%) (C) (F)
00:05 1017 30.03 846 24.98 5.7 42.2 83 3.1 37.6
00:10 1017 30.03 846 24.98 5.6 42.1 84 3.2 37.7
00:15 1017 30.03 846 24.98 5.5 42 84 3.1 37.5
00:20 1017 30.03 846 24.98 5.6 42.1 83 2.9 37.3
00:25 1017 30.03 846 24.98 5.6 42.1 82 2.7 36.9
00:30 1017 30.03 846 24.98 5.9 42.6 81 2.9 37.2
00:35 1017 30.03 846 24.98 6.1 42.9 79 2.7 36.8
00:40 1017 30.03 846 24.98 6.1 43 80 2.9 37.1
00:45 1017 30.03 846 24.98 6.1 43 79 2.7 36.9
00:50 1017 30.03 846 24.98 6 42.9 77 2.4 36.3
00:55 1017 30.03 846 24.98 5.9 42.6 79 2.5 36.5
01:00 1017 30.03 846 24.98 5.8 42.5 80 2.7 36.8
01:05 1017 30.03 846 24.98 5.6 42.1 82 2.8 37.1
01:10 1017 30.03 846 24.98 5.4 41.7 83 2.7 36.8
01:15 1017 30.03 846 24.98 5.4 41.6 84 2.8 37.1
01:20 1017 30.03 846 24.98 5.3 41.5 83 2.7 36.9
01:25 1017 30.03 846 24.98 5.3 41.5 83 2.6 36.7
01:30 1017 30.03 846 24.98 5.3 41.6 81 2.4 36.4
01:35 1017 30.03 846 24.98 5.6 42 80 2.4 36.3
01:40 1017 30.03 846 24.98 5.9 42.6 79 2.5 36.5
01:45 1017 30.03 846 24.98 6 42.8 79 2.6 36.6
01:50 1017 30.03 846 24.98 6 42.9 79 2.6 36.7
01:55 1017 30.03 846 24.98 5.7 42.3 81 2.6 36.7
02:00 1016 30 846 24.98 5.5 41.9 81 2.4 36.4
02:05 1017 30.03 846 24.98 5.5 41.9 80 2.4 36.3
02:10 1017 30.03 846 24.98 5.6 42.1 80 2.4 36.3
02:15 1017 30.03 846 24.98 5.7 42.2 78 2.1 35.8
02:20 1016 30 846 24.98 6 42.8 77 2.3 36.1
02:25 1016 30 846 24.98 5.9 42.6 80 2.7 36.9
02:30 1017 30.03 846 24.98 5.8 42.4 81 2.8 37.1
02:35 1016 30 846 24.98 5.8 42.5 80 2.6 36.6
02:40 1017 30.03 846 24.98 5.9 42.6 78 2.3 36.2
02:45 1016 30 846 24.98 6 42.9 77 2.3 36.2
02:50 1016 30 846 24.98 6.3 43.3 77 2.6 36.7
02:55 1017 30.03 846 24.98 6.4 43.5 77 2.6 36.7
03:00 1017 30.03 846 24.98 6.3 43.3 78 2.7 36.9
03:05 1017 30.03 846 24.98 6.3 43.3 80 3 37.4
03:10 1017 30.03 846 24.98 6.2 43.2 81 3.2 37.8
03:15 1017 30.03 846 24.98 6 42.8 82 3.2 37.8
03:20 1017 30.03 846 24.98 6 42.8 82 3.2 37.7
03:25 1017 30.03 846 24.98 6 42.9 82 3.1 37.6
03:30 1017 30.03 846 24.98 6 42.9 81 3 37.4
03:35 1017 30.03 846 24.98 6.1 43 81 3.2 37.8
03:40 1017 30.03 846 24.98 6.2 43.2 82 3.3 37.9
03:45 1017 30.03 846 24.98 6.3 43.3 82 3.4 38.1
03:50 1017 30.03 847 25.01 6.2 43.1 84 3.7 38.7
03:55 1017 30.03 846 24.98 5.9 42.6 86 3.6 38.6
04:00 1017 30.03 846 24.98 5.9 42.7 85 3.6 38.6
04:05 1017 30.03 846 24.98 5.9 42.7 86 3.8 38.9
04:10 1017 30.03 846 24.98 5.9 42.6 87 3.9 39.1
04:15 1017 30.03 846 24.98 5.9 42.6 89 4.3 39.7
04:20 1017 30.03 846 24.98 5.5 41.9 92 4.3 39.7
04:25 1017 30.03 846 24.98 5.3 41.5 92 4.1 39.3
04:30 1017 30.03 846 24.98 5.2 41.4 93 4.1 39.4
04:35 1017 30.03 846 24.98 5.3 41.5 93 4.2 39.6
04:40 1017 30.03 846 24.98 5.3 41.5 93 4.3 39.7
04:45 1017 30.03 846 24.98 5.3 41.5 94 4.4 39.9
04:50 1017 30.03 846 24.98 5.1 41.1 96 4.4 39.9
04:55 1017 30.03 846 24.98 4.9 40.9 95 4.3 39.7
05:00 1017 30.03 846 24.98 5 41 95 4.3 39.7
05:05 1017 30.03 846 24.98 5 41 95 4.3 39.8
05:10 1017 30.03 846 24.98 4.9 40.9 95 4.2 39.6
05:15 1017 30.03 846 24.98 4.9 40.8 95 4.2 39.5
05:20 1017 30.03 846 24.98 4.9 40.9 95 4.1 39.4
05:25 1017 30.03 846 24.98 4.9 40.8 93 3.9 38.9
05:30 1017 30.03 846 24.98 5 41 92 3.8 38.8
05:35 1017 30.03 846 24.98 5 41 92 3.8 38.8
05:40 1017 30.03 846 24.98 5 41 93 4 39.1
05:45 1017 30.03 846 24.98 5 40.9 94 4.1 39.4
05:50 1017 30.03 846 24.98 4.9 40.8 94 4 39.3
05:55 1017 30.03 846 24.98 4.9 40.9 94 4 39.3
06:00 1017 30.03 846 24.98 4.9 40.9 94 4 39.2
06:05 1017 30.03 846 24.98 4.9 40.9 94 4 39.2
06:10 1017 30.03 846 24.98 4.9 40.8 92 3.8 38.8
06:15 1017 30.03 846 24.98 5.1 41.2 91 3.8 38.8
06:20 1017 30.03 846 24.98 5.1 41.2 90 3.5 38.4
06:25 1017 30.03 846 24.98 5.2 41.3 90 3.7 38.7
06:30 1017 30.03 846 24.98 5.2 41.3 91 3.8 38.8
06:35 1017 30.03 846 24.98 5.1 41.2 91 3.7 38.7
06:40 1017 30.03 846 24.98 5.1 41.2 92 3.9 39.1
06:45 1017 30.03 846 24.98 5 41 93 3.9 39.1
06:50 1017 30.03 846 24.98 5 41 92 3.9 38.9
06:55 1017 30.03 846 24.98 5 41.1 93 3.9 39.1
07:00 1017 30.03 846 24.98 4.9 40.8 92 3.8 38.8
07:05 1017 30.03 846 24.98 4.9 40.8 90 3.4 38.1
07:10 1017 30.03 847 25.01 5 41 90 3.5 38.2
07:15 1017 30.03 847 25.01 5.1 41.2 91 3.7 38.7
07:20 1017 30.03 847 25.01 5.2 41.3 91 3.8 38.8
07:25 1017 30.03 847 25.01 5.2 41.3 89 3.6 38.4
07:30 1017 30.03 847 25.01 5.3 41.6 85 2.9 37.3
07:35 1017 30.03 847 25.01 5.6 42.2 82 2.8 37
07:40 1017 30.03 847 25.01 5.9 42.7 81 3 37.4
07:45 1017 30.03 847 25.01 6 42.9 80 2.9 37.2
07:50 1017 30.03 847 25.01 6.1 43.1 81 3.1 37.5
07:55 1017 30.03 847 25.01 6.1 43 81 3.1 37.5
08:00 1018 30.06 847 25.01 6.2 43.1 88 4.3 39.7
08:05 1018 30.06 847 25.01 5.9 42.6 90 4.3 39.8
08:10 1018 30.06 847 25.01 5.6 42.1 91 4.2 39.6
08:15 1018 30.06 847 25.01 5.7 42.2 91 4.3 39.8
08:20 1018 30.06 847 25.01 5.6 42.1 88 3.8 38.8
08:25 1018 30.06 847 25.01 5.6 42.1 88 3.7 38.7
08:30 1018 30.06 847 25.01 6 42.8 83 3.3 37.9
08:35 1018 30.06 847 25.01 6.6 43.9 82 3.7 38.7
08:40 1018 30.06 847 25.01 7.1 44.8 79 3.8 38.9
08:45 1018 30.06 847 25.01 7.3 45.1 78 3.7 38.6
08:50 1018 30.06 847 25.01 7.4 45.4 79 4.1 39.3
08:55 1018 30.06 847 25.01 7.5 45.5 80 4.2 39.6
09:00 1018 30.06 847 25.01 7.4 45.3 80 4.2 39.6
09:05 1018 30.06 847 25.01 7.4 45.2 81 4.3 39.8
09:10 1018 30.06 847 25.01 7.4 45.3 81 4.4 40
09:15 1018 30.06 848 25.04 7.5 45.4 85 5.1 41.3
09:20 1018 30.06 848 25.04 7.2 44.9 88 5.3 41.5
09:25 1018 30.06 848 25.04 7.2 44.9 87 5.2 41.3
09:30 1018 30.06 848 25.04 7 44.6 87 5 41
09:35 1018 30.06 848 25.04 6.9 44.5 83 4.3 39.8
09:40 1018 30.06 848 25.04 7 44.7 84 4.6 40.2
09:45 1018 30.06 848 25.04 7.1 44.9 84 4.5 40.2
09:50 1018 30.06 848 25.04 7.3 45.1 80 4.1 39.4
09:55 1018 30.06 848 25.04 7.8 46 77 4 39.3
10:00 1018 30.06 848 25.04 7.9 46.2 80 4.6 40.3
10:05 1018 30.06 848 25.04 7.9 46.1 80 4.5 40.2
10:10 1018 30.06 848 25.04 8.3 47 79 4.9 40.8
10:15 1019 30.09 848 25.04 8.6 47.6 77 4.8 40.7
10:20 1019 30.09 848 25.04 8.5 47.4 79 5.1 41.3
10:25 1019 30.09 848 25.04 8.3 47 79 4.8 40.7
10:30 1019 30.09 848 25.04 8.8 47.8 75 4.6 40.3
10:35 1019 30.09 848 25.04 9.8 49.6 71 4.7 40.5
10:40 1019 30.09 848 25.04 10.5 51 68 4.9 40.7
10:45 1019 30.09 848 25.04 10.9 51.7 58 3.1 37.6
10:50 1019 30.09 848 25.04 10.5 50.8 62 3.4 38.2
10:55 1019 30.09 848 25.04 11.2 52.2 60 3.7 38.7
11:00 1019 30.09 848 25.04 11.7 53.1 59 4 39.2
11:05 1019 30.09 848 25.04 11.8 53.3 60 4.3 39.8
11:10 1019 30.09 848 25.04 11.8 53.3 61 4.6 40.3
11:15 1019 30.09 848 25.04 11.8 53.2 60 4.3 39.8
11:20 1019 30.09 848 25.04 12.3 54.1 57 4 39.2
11:25 1019 30.09 848 25.04 12 53.5 61 4.8 40.7
11:30 1019 30.09 848 25.04 11.5 52.8 61 4.3 39.7
11:35 1019 30.09 848 25.04 11.7 53 55 3 37.4
11:40 1018 30.06 848 25.04 12.7 54.8 55 3.9 39.1
11:45 1018 30.06 848 25.04 13 55.4 53 3.7 38.7
11:50 1018 30.06 848 25.04 13.2 55.7 53 3.8 38.9
11:55 1018 30.06 848 25.04 13.2 55.7 53 3.8 38.8
12:00 1018 30.06 848 25.04 13.5 56.4 52 3.9 39
12:05 1018 30.06 848 25.04 13 55.5 53 3.7 38.7
12:10 1018 30.06 848 25.04 13.3 55.9 50 3.3 37.9
12:15 1018 30.06 848 25.04 13.8 56.8 49 3.3 37.9
12:20 1018 30.06 848 25.04 14 57.1 47 2.9 37.2
12:25 1018 30.06 848 25.04 13.9 57 47 2.8 37
12:30 1018 30.06 847 25.01 13.6 56.5 48 3 37.4
12:35 1018 30.06 847 25.01 12.9 55.2 48 2.2 36
12:40 1018 30.06 847 25.01 14.1 57.4 48 3.3 37.9
12:45 1018 30.06 847 25.01 14.8 58.7 47 3.6 38.5
12:50 1018 30.06 847 25.01 14.3 57.8 51 4.4 39.9
12:55 1018 30.06 847 25.01 12.6 54.7 55 3.9 39
13:00 1018 30.06 847 25.01 12.9 55.2 53 3.6 38.4
13:05 1018 30.06 847 25.01 13.7 56.6 45 2 35.6
13:10 1018 30.06 847 25.01 14.3 57.7 43 2 35.6
13:15 1018 30.06 847 25.01 13.7 56.7 40 0.6 33.1
13:20 1018 30.06 847 25.01 13.7 56.6 40 0.4 32.7
13:25 1018 30.06 847 25.01 13.8 56.9 35 -1.3 29.7
13:30 1018 30.06 847 25.01 13.6 56.5 33 -2.4 27.6
13:35 1018 30.06 847 25.01 13.9 57 33 -2.2 28.1
13:40 1018 30.06 847 25.01 14.2 57.5 34 -1.6 29.1
13:45 1018 30.06 847 25.01 13.8 56.9 33 -1.9 28.6
13:50 1018 30.06 847 25.01 13.2 55.8 35 -2 28.4
13:55 1018 30.06 847 25.01 13 55.4 36 -1.6 29.2
14:00 1018 30.06 847 25.01 13 55.3 37 -1.2 29.8
14:05 1018 30.06 847 25.01 13.3 55.9 40 -0.1 31.9
14:10 1018 30.06 847 25.01 14.2 57.6 37 -0.2 31.6
14:15 1018 30.06 847 25.01 14.7 58.5 32 -1.7 29
14:20 1018 30.06 847 25.01 13.9 57.1 35 -1.3 29.7
14:25 1018 30.06 847 25.01 14 57.2 35 -1 30.3
14:30 1018 30.06 847 25.01 14 57.1 36 -0.9 30.3
14:35 1018 30.06 847 25.01 15.1 59.2 34 -0.4 31.3
14:40 1018 30.06 847 25.01 15.4 59.8 33 -0.9 30.4
14:45 1018 30.06 847 25.01 14.4 57.9 35 -0.7 30.7
14:50 1018 30.06 847 25.01 15.2 59.3 32 -1.3 29.7
14:55 1018 30.06 847 25.01 15.6 60.2 32 -1 30.3
15:00 1018 30.06 847 25.01 15.1 59.1 33 -1 30.2
15:05 1018 30.06 847 25.01 14.3 57.7 34 -1.4 29.4
15:10 1018 30.06 847 25.01 14.7 58.5 33 -1.4 29.5
15:15 1018 30.06 847 25.01 14 57.3 34 -1.6 29.2
15:20 1018 30.06 847 25.01 13.8 56.8 34 -1.9 28.7
15:25 1018 30.06 847 25.01 14.7 58.4 32 -1.6 29
15:30 1018 30.06 847 25.01 15.4 59.8 31 -1.4 29.5
15:35 1018 30.06 847 25.01 15.3 59.5 31 -1.6 29.1
15:40 1018 30.06 847 25.01 14.8 58.6 31 -2.2 28.1
15:45 1018 30.06 847 25.01 15.1 59.1 30 -2.1 28.2
15:50 1018 30.06 847 25.01 15.8 60.5 30 -1.8 28.8
15:55 1017 30.03 847 25.01 16.1 60.9 29 -1.9 28.6
16:00 1017 30.03 847 25.01 16.4 61.5 29 -1.8 28.8
16:05 1017 30.03 847 25.01 16.6 61.9 28 -1.7 28.9
16:10 1017 30.03 847 25.01 16.2 61.2 29 -1.5 29.3
16:15 1017 30.03 847 25.01 15.7 60.2 29 -2.1 28.1
16:20 1017 30.03 847 25.01 15.9 60.7 27 -3.1 26.4
16:25 1017 30.03 847 25.01 16 60.8 28 -2.5 27.5
16:30 1017 30.03 847 25.01 15.9 60.6 27 -3 26.7
16:35 1017 30.03 847 25.01 16 60.7 27 -2.7 27.2
16:40 1017 30.03 847 25.01 16.2 61.2 26 -3.1 26.4
16:45 1017 30.03 847 25.01 16.1 61 27 -2.8 27
16:50 1017 30.03 847 25.01 16.2 61.2 26 -3.1 26.5
16:55 1017 30.03 847 25.01 16.3 61.4 26 -2.9 26.8
17:00 1017 30.03 847 25.01 16.3 61.3 24 -4.1 24.5
17:05 1017 30.03 847 25.01 16.2 61.1 25 -3.9 25
17:10 1017 30.03 847 25.01 16 60.9 24 -4.3 24.2
17:15 1017 30.03 847 25.01 15.9 60.7 24 -4.4 24.1
17:20 1017 30.03 847 25.01 16.1 60.9 25 -3.8 25.1
17:25 1017 30.03 847 25.01 15.8 60.4 25 -3.9 24.9
17:30 1017 30.03 847 25.01 16.1 61 23 -4.9 23.2
17:35 1017 30.03 847 25.01 16.2 61.2 23 -4.7 23.5
17:40 1017 30.03 847 25.01 16 60.9 23 -5.2 22.6
17:45 1017 30.03 847 25.01 16.3 61.4 23 -4.9 23.2
17:50 1017 30.03 847 25.01 16.1 61 24 -4.2 24.5
17:55 1017 30.03 847 25.01 16.1 60.9 24 -4.5 24
18:00 1017 30.03 847 25.01 15.9 60.6 25 -4.3 24.3
18:05 1017 30.03 847 25.01 15.8 60.5 25 -4.2 24.4
18:10 1017 30.03 847 25.01 15.9 60.6 26 -3.7 25.3
18:15 1017 30.03 847 25.01 15.9 60.6 27 -2.9 26.7
18:20 1017 30.03 847 25.01 15.4 59.7 27 -3.3 26
18:25 1017 30.03 847 25.01 15 59 28 -3.4 25.8
18:30 1018 30.06 847 25.01 14.8 58.7 28 -3.6 25.5
18:35 1017 30.03 847 25.01 14.7 58.5 28 -3.7 25.3
18:40 1018 30.06 847 25.01 14.6 58.3 28 -3.8 25.2
18:45 1018 30.06 847 25.01 14.5 58.1 28 -3.6 25.6
18:50 1018 30.06 847 25.01 14.5 58 29 -3.3 26
18:55 1018 30.06 847 25.01 14.4 57.9 29 -3.3 26.1
19:00 1018 30.06 847 25.01 14.3 57.7 29 -3.5 25.7
19:05 1018 30.06 847 25.01 14.1 57.4 30 -3.3 26
19:10 1018 30.06 847 25.01 14 57.2 30 -3.1 26.4
19:15 1018 30.06 847 25.01 13.8 56.9 31 -2.9 26.7
19:20 1018 30.06 847 25.01 13.7 56.6 32 -2.8 27
19:25 1018 30.06 847 25.01 13.5 56.3 33 -2.3 27.8
19:30 1018 30.06 847 25.01 13.4 56.1 33 -2.6 27.3
19:35 1018 30.06 847 25.01 13.2 55.7 34 -2.1 28.2
19:40 1018 30.06 847 25.01 13 55.4 35 -2.2 28
19:45 1018 30.06 847 25.01 12.9 55.2 34 -2.6 27.3
19:50 1018 30.06 847 25.01 12.8 55 34 -2.7 27.2
19:55 1018 30.06 847 25.01 12.8 55 34 -2.6 27.2
20:00 1018 30.06 847 25.01 12.6 54.7 34 -2.6 27.2
20:05 1018 30.06 847 25.01 12.5 54.5 35 -2.6 27.4
20:10 1018 30.06 847 25.01 12.2 53.9 39 -1.2 29.9
20:15 1018 30.06 847 25.01 10.9 51.7 46 -0.3 31.5
20:20 1018 30.06 847 25.01 10.1 50.1 48 -0.5 31
20:25 1018 30.06 847 25.01 9.8 49.6 47 -1 30.2
20:30 1018 30.06 847 25.01 9.6 49.2 46 -1.3 29.6
20:35 1018 30.06 847 25.01 9.6 49.2 46 -1.3 29.6
20:40 1018 30.06 847 25.01 9.4 48.8 46 -1.5 29.3
20:45 1018 30.06 847 25.01 9.2 48.6 46 -1.6 29
20:50 1018 30.06 847 25.01 9.1 48.3 47 -1.6 29.1
20:55 1018 30.06 847 25.01 8.9 48 49 -1.3 29.6
21:00 1018 30.06 847 25.01 8.3 46.9 50 -1.4 29.5
21:05 1018 30.06 848 25.04 8 46.4 53 -1 30.1
21:10 1018 30.06 848 25.04 7.7 45.9 52 -1.4 29.5
21:15 1018 30.06 848 25.04 7.9 46.3 51 -1.6 29.1
21:20 1019 30.09 848 25.04 7.8 46 54 -0.8 30.5
21:25 1019 30.09 848 25.04 7.3 45.2 54 -1.2 29.8
21:30 1019 30.09 848 25.04 7.5 45.5 52 -1.8 28.8
21:35 1019 30.09 848 25.04 7.7 45.8 49 -2.3 27.8
21:40 1019 30.09 848 25.04 8.1 46.6 47 -2.4 27.6
21:45 1019 30.09 848 25.04 8.2 46.8 46 -2.7 27.2
21:50 1019 30.09 848 25.04 8.4 47.1 47 -2.3 27.8
21:55 1019 30.09 848 25.04 8.2 46.8 47 -2.4 27.6
22:00 1019 30.09 848 25.04 8.1 46.6 46 -2.9 26.8
22:05 1019 30.09 848 25.04 8.4 47.2 43 -3.3 26.1
22:10 1019 30.09 848 25.04 8.6 47.4 44 -3.1 26.5
22:15 1019 30.09 848 25.04 8.5 47.3 45 -2.6 27.2
22:20 1019 30.09 848 25.04 8.3 46.9 45 -2.9 26.8
22:25 1019 30.09 848 25.04 8.4 47.2 45 -2.9 26.8
22:30 1019 30.09 848 25.04 8.2 46.7 46 -2.8 27
22:35 1019 30.09 848 25.04 8 46.4 47 -2.5 27.6
22:40 1019 30.09 848 25.04 7.6 45.7 50 -2.3 27.9
22:45 1019 30.09 848 25.04 7.1 44.9 52 -2.1 28.2
22:50 1019 30.09 848 25.04 6.9 44.4 51 -2.5 27.5
22:55 1018 30.06 848 25.04 7.1 44.9 48 -3.1 26.3
23:00 1018 30.06 848 25.04 7.8 46 45 -3.3 26.1
23:05 1018 30.06 848 25.04 7.9 46.1 46 -3.1 26.4
23:10 1018 30.06 848 25.04 7.7 45.8 46 -3.1 26.5
23:15 1018 30.06 848 25.04 7.4 45.3 47 -3.1 26.5
23:20 1018 30.06 848 25.04 7.3 45.2 47 -3.2 26.3
23:25 1018 30.06 848 25.04 7.2 45 48 -2.9 26.7
23:30 1018 30.06 848 25.04 6.9 44.4 51 -2.6 27.3
23:35 1019 30.09 848 25.04 6.5 43.8 53 -2.4 27.7
23:40 1018 30.06 848 25.04 6.5 43.6 53 -2.4 27.7
23:45 1018 30.06 848 25.04 6.6 43.8 52 -2.4 27.6
23:50 1019 30.09 848 25.04 6.4 43.4 55 -2 28.4
23:55 1019 30.09 848 25.04 6 42.8 56 -2.2 28.1
24:00 1019 30.09 848 25.04 5.8 42.5 56 -2.3 27.8